Time;durP1;ratioP1;P1;durP2;ratioP2;P2;SDS_P1;SDS_P2;PMS_P1;PMS_P2;Temp;Humidity;BMP_temperature;BMP_pressure;BME280_temperature;BME280_humidity;BME280_pressure;Samples;Min_cycle;Max_cycle;Signal;HPM_P1;HPM_P2
2023/03/27 00:00:12;;;;;;;;;;;;;;;-0.94;100.00;99671.75;5134669;27;19918;-72
2023/03/27 00:02:37;;;;;;;;;;;;;;;-1.00;100.00;99665.22;5137081;27;19919;-72
2023/03/27 00:05:04;;;;;;;;;;;;;;;-0.97;100.00;99669.38;5140001;27;19912;-72
2023/03/27 00:07:29;;;;;;;;;;;;;;;-0.94;100.00;99672.56;5134907;27;20021;-71
2023/03/27 00:09:56;;;;;;;;;;;;;;;-0.88;100.00;99673.06;5134407;27;20008;-71
2023/03/27 00:12:21;;;;;;;;;;;;;;;-0.81;100.00;99674.28;5133949;27;19915;-72
2023/03/27 00:14:47;;;;;;;;;;;;;;;-0.85;100.00;99678.91;5134239;27;19915;-71
2023/03/27 00:17:12;;;;;;;;;;;;;;;-0.92;100.00;99675.06;5135459;27;19912;-71
2023/03/27 00:19:37;;;;;;;;;;;;;;;-0.90;100.00;99674.94;5138444;27;19911;-70
2023/03/27 00:22:03;;;;;;;;;;;;;;;-0.91;100.00;99675.91;5141377;27;20274;-69
2023/03/27 00:24:28;;;;;;;;;;;;;;;-0.89;100.00;99682.69;5136901;27;19911;-72
2023/03/27 00:26:53;;;;;;;;;;;;;;;-0.76;100.00;99687.81;5134435;27;19911;-72
2023/03/27 00:29:19;;;;;;;;;;;;;;;-0.70;100.00;99692.59;5134014;27;19911;-72
2023/03/27 00:31:45;;;;;;;;;;;;;;;-0.69;100.00;99683.78;5133566;27;19912;-73
2023/03/27 00:34:10;;;;;;;;;;;;;;;-0.72;100.00;99679.63;5133953;27;19991;-71
2023/03/27 00:37:03;;;;;;;;;;;;;;;-0.84;100.00;99683.19;5134233;27;19975;-71
2023/03/27 00:39:30;;;;;;;;;;;;;;;-0.89;100.00;99687.06;5133544;27;19922;-71
2023/03/27 00:41:55;;;;;;;;;;;;;;;-0.87;100.00;99688.63;5133631;27;19912;-70
2023/03/27 00:44:22;;;;;;;;;;;;;;;-0.81;100.00;99684.72;5133285;28;19922;-70
2023/03/27 00:46:48;;;;;;;;;;;;;;;-0.74;100.00;99685.94;5135385;27;19958;-69
2023/03/27 00:49:15;;;;;;;;;;;;;;;-0.79;100.00;99688.88;5134331;28;19936;-69
2023/03/27 00:51:41;;;;;;;;;;;;;;;-0.78;100.00;99682.72;5135081;28;19973;-73
2023/03/27 00:54:07;;;;;;;;;;;;;;;-0.79;100.00;99680.22;5135766;28;19912;-71
2023/03/27 00:56:33;;;;;;;;;;;;;;;-0.77;100.00;99686.16;5135624;28;19950;-70
2023/03/27 00:59:05;;;;;;;;;;;;;;;-0.86;100.00;99682.47;5133685;28;20373;-71
2023/03/27 01:01:30;;;;;;;;;;;;;;;-0.89;100.00;99690.50;5139346;27;19912;-71
2023/03/27 01:03:59;;;;;;;;;;;;;;;-0.95;100.00;99681.38;5137771;27;20254;-71
2023/03/27 01:06:25;;;;;;;;;;;;;;;-0.93;100.00;99676.84;5119292;27;19919;-71
2023/03/27 01:08:50;;;;;;;;;;;;;;;-0.88;100.00;99680.91;5138035;27;19915;-70
2023/03/27 01:11:35;;;;;;;;;;;;;;;-0.82;100.00;99683.06;5137403;27;19911;-71
2023/03/27 01:14:00;;;;;;;;;;;;;;;-0.81;100.00;99679.50;5137349;27;19959;-71
2023/03/27 01:16:34;;;;;;;;;;;;;;;-0.73;100.00;99677.97;5137453;27;19922;-70
2023/03/27 01:19:21;;;;;;;;;;;;;;;-0.66;100.00;99689.59;5137817;27;19960;-72
2023/03/27 01:21:46;;;;;;;;;;;;;;;-0.75;100.00;99684.25;5137583;27;19943;-71
2023/03/27 01:24:21;;;;;;;;;;;;;;;-0.78;100.00;99679.28;5137004;27;19918;-70
2023/03/27 01:26:50;;;;;;;;;;;;;;;-0.81;100.00;99685.56;5137193;27;19912;-70
2023/03/27 01:29:18;;;;;;;;;;;;;;;-0.82;100.00;99685.69;5136950;27;19983;-71
2023/03/27 01:31:46;;;;;;;;;;;;;;;-0.84;100.00;99674.50;5137229;27;19911;-70
2023/03/27 01:34:12;;;;;;;;;;;;;;;-0.82;100.00;99676.06;5136677;27;19951;-71
2023/03/27 01:36:54;;;;;;;;;;;;;;;-0.82;100.00;99672.63;5136839;27;19947;-72
2023/03/27 01:39:35;;;;;;;;;;;;;;;-0.77;100.00;99673.09;5136780;27;20026;-70
2023/03/27 01:42:03;;;;;;;;;;;;;;;-0.76;100.00;99672.97;5136907;27;19912;-71
2023/03/27 01:44:41;;;;;;;;;;;;;;;-0.77;100.00;99667.84;5136720;27;19919;-70
2023/03/27 01:47:27;;;;;;;;;;;;;;;-0.85;100.00;99678.06;5118095;27;19964;-72
2023/03/27 01:50:15;;;;;;;;;;;;;;;-0.85;100.00;99672.84;5094284;27;19933;-70
2023/03/27 01:52:45;;;;;;;;;;;;;;;-0.85;100.00;99678.91;5098413;27;20003;-70
2023/03/27 01:55:17;;;;;;;;;;;;;;;-0.86;100.00;99677.25;5136869;27;20371;-71
2023/03/27 01:58:03;;;;;;;;;;;;;;;-0.86;100.00;99679.84;5136418;27;19911;-71
2023/03/27 02:00:30;;;;;;;;;;;;;;;-0.86;100.00;99676.41;5136561;27;19956;-72
2023/03/27 02:03:01;;;;;;;;;;;;;;;-0.80;100.00;99678.56;5119026;27;20006;-70
2023/03/27 02:05:29;;;;;;;;;;;;;;;-0.74;100.00;99681.53;5118700;27;19911;-71
2023/03/27 02:07:59;;;;;;;;;;;;;;;-0.72;100.00;99678.78;5125272;27;19912;-70
2023/03/27 02:10:27;;;;;;;;;;;;;;;-0.76;100.00;99683.44;5148549;27;20316;-70
2023/03/27 02:12:55;;;;;;;;;;;;;;;-0.78;100.00;99677.50;5141121;27;19912;-70
2023/03/27 02:15:25;;;;;;;;;;;;;;;-0.76;100.00;99680.81;5140519;27;19920;-72
2023/03/27 02:17:56;;;;;;;;;;;;;;;-0.87;100.00;99683.38;5136337;27;19918;-71
2023/03/27 02:20:22;;;;;;;;;;;;;;;-0.93;100.00;99674.25;5140148;27;19915;-70
2023/03/27 02:22:48;;;;;;;;;;;;;;;-0.95;100.00;99670.91;5138600;27;19919;-70
2023/03/27 02:25:21;;;;;;;;;;;;;;;-0.90;100.00;99670.56;5136072;27;19912;-70
2023/03/27 02:27:47;;;;;;;;;;;;;;;-0.95;100.00;99670.91;5135939;27;19911;-71
2023/03/27 02:30:39;;;;;;;;;;;;;;;-0.91;100.00;99683.75;5135752;27;19911;-70
2023/03/27 02:33:13;;;;;;;;;;;;;;;-0.98;100.00;99676.38;5136340;27;19920;-71
2023/03/27 02:35:57;;;;;;;;;;;;;;;-0.94;100.00;99677.81;5136828;27;19922;-72
2023/03/27 02:38:22;;;;;;;;;;;;;;;-0.99;100.00;99674.72;5136473;27;20042;-71
2023/03/27 02:41:07;;;;;;;;;;;;;;;-0.93;100.00;99674.25;5136167;27;19919;-70
2023/03/27 02:43:45;;;;;;;;;;;;;;;-0.97;100.00;99679.81;5142143;27;19915;-71
2023/03/27 02:46:18;;;;;;;;;;;;;;;-0.97;100.00;99672.81;5144743;27;19912;-70
2023/03/27 02:48:46;;;;;;;;;;;;;;;-0.96;100.00;99678.88;5138684;27;19918;-71
2023/03/27 02:51:21;;;;;;;;;;;;;;;-0.96;100.00;99684.94;5136280;27;19921;-71
2023/03/27 02:53:53;;;;;;;;;;;;;;;-0.90;100.00;99680.19;5135956;27;19969;-72
2023/03/27 02:56:21;;;;;;;;;;;;;;;-0.86;100.00;99673.81;5117400;27;20305;-70
2023/03/27 02:58:56;;;;;;;;;;;;;;;-0.86;100.00;99679.03;5122614;27;20406;-70
2023/03/27 03:01:22;;;;;;;;;;;;;;;-0.83;100.00;99676.19;5114720;28;20268;-72
2023/03/27 03:03:52;;;;;;;;;;;;;;;-0.93;100.00;99679.47;5114592;28;19911;-71
2023/03/27 03:06:18;;;;;;;;;;;;;;;-0.94;100.00;99669.13;5114686;28;19951;-72
2023/03/27 03:08:45;;;;;;;;;;;;;;;-0.90;100.00;99674.94;5114356;28;20363;-71
2023/03/27 03:11:12;;;;;;;;;;;;;;;-0.94;100.00;99664.72;5114813;28;19969;-70
2023/03/27 03:13:37;;;;;;;;;;;;;;;-0.94;100.00;99667.34;5114923;28;19956;-71
2023/03/27 03:16:03;;;;;;;;;;;;;;;-0.91;100.00;99668.91;5114551;28;19920;-71
2023/03/27 03:18:28;;;;;;;;;;;;;;;-0.88;100.00;99670.44;5114729;28;20367;-70
2023/03/27 03:20:54;;;;;;;;;;;;;;;-0.90;100.00;99669.72;5114701;28;19912;-72
2023/03/27 03:23:20;;;;;;;;;;;;;;;-0.88;100.00;99667.81;5114638;28;20374;-71
2023/03/27 03:25:46;;;;;;;;;;;;;;;-0.86;100.00;99665.97;5116898;28;20390;-71
2023/03/27 03:28:12;;;;;;;;;;;;;;;-0.89;100.00;99667.00;5114428;28;19919;-71
2023/03/27 03:30:40;;;;;;;;;;;;;;;-0.91;100.00;99662.84;5114298;28;19912;-72
2023/03/27 03:33:06;;;;;;;;;;;;;;;-0.91;100.00;99661.06;5113996;28;19919;-71
2023/03/27 03:35:33;;;;;;;;;;;;;;;-0.88;100.00;99667.81;5114265;28;19920;-71
2023/03/27 03:37:59;;;;;;;;;;;;;;;-0.88;100.00;99667.81;5114159;28;19916;-70
2023/03/27 03:40:25;;;;;;;;;;;;;;;-0.89;100.00;99671.38;5095780;28;19923;-72
2023/03/27 03:42:50;;;;;;;;;;;;;;;-0.87;100.00;99669.50;5113971;28;19912;-71
2023/03/27 03:45:16;;;;;;;;;;;;;;;-0.80;100.00;99665.47;5114031;28;19911;-73
2023/03/27 03:47:42;;;;;;;;;;;;;;;-0.83;100.00;99660.50;5115444;28;19912;-71
2023/03/27 03:50:07;;;;;;;;;;;;;;;-0.86;100.00;99672.03;5119203;28;19919;-74
2023/03/27 03:52:33;;;;;;;;;;;;;;;-0.82;100.00;99672.63;5119577;28;19912;-71
2023/03/27 03:54:58;;;;;;;;;;;;;;;-0.85;100.00;99672.84;5118547;28;20000;-71
2023/03/27 03:57:23;;;;;;;;;;;;;;;-0.91;100.00;99668.91;5116362;28;19967;-74
2023/03/27 03:59:49;;;;;;;;;;;;;;;-0.89;100.00;99671.38;5114097;28;19916;-72
2023/03/27 04:02:27;;;;;;;;;;;;;;;-0.93;100.00;99666.41;5095872;28;19937;-70
2023/03/27 04:04:58;;;;;;;;;;;;;;;-0.93;100.00;99676.84;5095676;28;19918;-72
2023/03/27 04:07:30;;;;;;;;;;;;;;;-1.01;100.00;99668.75;5113699;28;19965;-69
2023/03/27 04:09:55;;;;;;;;;;;;;;;-1.00;100.00;99664.38;5113435;28;19958;-71
2023/03/27 04:12:20;;;;;;;;;;;;;;;-0.99;100.00;99681.72;5113387;28;19915;-72
2023/03/27 04:14:46;;;;;;;;;;;;;;;-0.96;100.00;99671.88;5113169;28;19915;-74
2023/03/27 04:17:11;;;;;;;;;;;;;;;-0.95;100.00;99668.31;5113202;28;19915;-73
2023/03/27 04:19:36;;;;;;;;;;;;;;;-0.91;100.00;99670.69;5113315;28;19965;-75
2023/03/27 04:22:03;;;;;;;;;;;;;;;-0.89;100.00;99676.63;5113363;28;19912;-70
2023/03/27 04:24:29;;;;;;;;;;;;;;;-0.91;100.00;99668.91;5113219;28;19911;-72
2023/03/27 04:27:00;;;;;;;;;;;;;;;-0.91;100.00;99674.13;5113178;28;20414;-70
2023/03/27 04:29:29;;;;;;;;;;;;;;;-0.95;100.00;99670.91;5112898;28;20049;-73
2023/03/27 04:31:55;;;;;;;;;;;;;;;-0.97;100.00;99670.19;5113436;28;20002;-70
2023/03/27 04:34:21;;;;;;;;;;;;;;;-0.99;100.00;99664.25;5112628;28;19963;-71
2023/03/27 04:36:46;;;;;;;;;;;;;;;-0.93;100.00;99666.41;5112118;28;19959;-71
2023/03/27 04:39:11;;;;;;;;;;;;;;;-0.87;100.00;99664.25;5112789;28;19911;-69
2023/03/27 04:41:37;;;;;;;;;;;;;;;-0.87;100.00;99666.88;5112921;28;20451;-70
2023/03/27 04:44:04;;;;;;;;;;;;;;;-0.85;100.00;99665.84;5112898;28;19912;-69
2023/03/27 04:46:29;;;;;;;;;;;;;;;-0.82;100.00;99663.00;5112634;28;19918;-69
2023/03/27 04:48:55;;;;;;;;;;;;;;;-0.85;100.00;99665.00;5112932;28;19912;-70
2023/03/27 04:51:20;;;;;;;;;;;;;;;-0.86;100.00;99665.97;5112785;28;19912;-68
2023/03/27 04:53:45;;;;;;;;;;;;;;;-0.83;100.00;99663.09;5112745;28;19919;-71
2023/03/27 04:56:11;;;;;;;;;;;;;;;-0.85;100.00;99665.00;5113305;28;20022;-70
2023/03/27 04:58:36;;;;;;;;;;;;;;;-0.91;100.00;99668.06;5112767;28;19918;-69
2023/03/27 05:01:02;;;;;;;;;;;;;;;-0.88;100.00;99670.44;5112372;28;20400;-68
2023/03/27 05:03:27;;;;;;;;;;;;;;;-0.90;100.00;99673.16;5112268;28;20363;-68
2023/03/27 05:05:52;;;;;;;;;;;;;;;-0.87;100.00;99669.50;5112729;28;19965;-68
2023/03/27 05:08:18;;;;;;;;;;;;;;;-0.88;100.00;99649.53;5112531;28;19934;-69
2023/03/27 05:10:44;;;;;;;;;;;;;;;-0.78;100.00;99668.81;5112540;28;20355;-69
2023/03/27 05:13:09;;;;;;;;;;;;;;;-0.72;100.00;99665.72;5113034;28;19912;-70
2023/03/27 05:15:35;;;;;;;;;;;;;;;-0.75;100.00;99679.03;5114122;28;19915;-67
2023/03/27 05:18:01;;;;;;;;;;;;;;;-0.67;100.00;99687.94;5114019;28;20014;-68
2023/03/27 05:20:26;;;;;;;;;;;;;;;-0.74;100.00;99699.00;5114874;28;19912;-68
2023/03/27 05:22:53;;;;;;;;;;;;;;;-0.75;100.00;99689.50;5115375;28;19918;-71
2023/03/27 05:25:18;;;;;;;;;;;;;;;-0.78;100.00;99680.09;5115894;28;20414;-71
2023/03/27 05:27:47;;;;;;;;;;;;;;;-0.78;100.00;99694.94;5115659;28;19945;-69
2023/03/27 05:30:13;;;;;;;;;;;;;;;-0.81;100.00;99700.41;5122293;28;19954;-68
2023/03/27 05:32:39;;;;;;;;;;;;;;;-0.90;100.00;99688.84;5134635;28;20354;-69
2023/03/27 05:35:04;;;;;;;;;;;;;;;-0.84;100.00;99679.75;5114266;28;19919;-70
2023/03/27 05:37:29;;;;;;;;;;;;;;;-0.90;100.00;99693.25;5114587;28;19981;-69
2023/03/27 05:39:55;;;;;;;;;;;;;;;-0.93;100.00;99689.91;5132599;28;19911;-67
2023/03/27 05:42:20;;;;;;;;;;;;;;;-0.89;100.00;99687.06;5126988;28;20244;-70
2023/03/27 05:44:46;;;;;;;;;;;;;;;-0.75;100.00;99686.88;5132840;28;20323;-68
2023/03/27 05:47:13;;;;;;;;;;;;;;;-0.80;100.00;99696.84;5133968;27;19923;-70
2023/03/27 05:49:38;;;;;;;;;;;;;;;-0.76;100.00;99698.28;5153544;27;19975;-67
2023/03/27 05:52:04;;;;;;;;;;;;;;;-0.68;100.00;99695.91;5144932;27;19958;-67
2023/03/27 05:54:29;;;;;;;;;;;;;;;-0.56;100.00;99702.84;5137013;27;19918;-73
2023/03/27 05:56:54;;;;;;;;;;;;;;;-0.60;100.00;99714.44;5136355;27;20036;-70
2023/03/27 05:59:20;;;;;;;;;;;;;;;-0.59;100.00;99708.28;5136275;27;19918;-69
2023/03/27 06:01:45;;;;;;;;;;;;;;;-0.53;100.00;99715.66;5136288;27;19911;-69
2023/03/27 06:04:11;;;;;;;;;;;;;;;-0.48;100.00;99712.69;5138141;27;19923;-72
2023/03/27 06:06:36;;;;;;;;;;;;;;;-0.55;100.00;99701.06;5131161;27;19911;-69
2023/03/27 06:09:02;;;;;;;;;;;;;;;-0.57;100.00;99719.47;5136836;27;19919;-68
2023/03/27 06:11:27;;;;;;;;;;;;;;;-0.44;100.00;99716.75;5117855;27;20011;-67
2023/03/27 06:13:53;;;;;;;;;;;;;;;-0.42;100.00;99726.13;5136295;27;19958;-69
2023/03/27 06:16:22;;;;;;;;;;;;;;;-0.45;100.00;99721.13;5136265;27;20384;-70
2023/03/27 06:18:48;;;;;;;;;;;;;;;-0.38;100.00;99719.72;5135984;27;19915;-69
2023/03/27 06:21:13;;;;;;;;;;;;;;;-0.35;100.00;99719.47;5136109;27;19934;-67
2023/03/27 06:23:38;;;;;;;;;;;;;;;-0.29;100.00;99727.78;5136067;27;19938;-69
2023/03/27 06:26:04;;;;;;;;;;;;;;;-0.22;100.00;99724.59;5136469;27;20286;-73
2023/03/27 06:28:29;;;;;;;;;;;;;;;-0.19;100.00;99729.59;5136118;27;20363;-71
2023/03/27 06:30:56;;;;;;;;;;;;;;;-0.33;100.00;99733.25;5136771;27;20432;-71
2023/03/27 06:33:24;;;;;;;;;;;;;;;-0.29;100.00;99735.63;5144339;27;19915;-67
2023/03/27 06:35:50;;;;;;;;;;;;;;;-0.24;100.00;99723.88;5136946;27;19993;-69
2023/03/27 06:38:17;;;;;;;;;;;;;;;-0.13;100.00;99726.50;5135853;27;20438;-65
2023/03/27 06:40:43;;;;;;;;;;;;;;;0.01;100.00;99728.03;5135877;27;19964;-68
2023/03/27 06:43:09;;;;;;;;;;;;;;;0.02;99.55;99729.69;5135579;27;19911;-67
2023/03/27 06:45:37;;;;;;;;;;;;;;;-0.06;99.65;99729.44;5134824;27;19911;-72
2023/03/27 06:48:03;;;;;;;;;;;;;;;-0.13;98.21;99750.03;5138023;27;20330;-70
2023/03/27 06:50:29;;;;;;;;;;;;;;;-0.13;99.15;99750.03;5136392;27;19926;-71
2023/03/27 06:52:55;;;;;;;;;;;;;;;-0.05;99.07;99731.13;5135244;27;19911;-73
2023/03/27 06:55:21;;;;;;;;;;;;;;;0.04;99.01;99734.81;5136356;27;19911;-71
2023/03/27 06:57:48;;;;;;;;;;;;;;;-0.01;98.74;99741.22;5136034;27;19918;-72
2023/03/27 07:00:24;;;;;;;;;;;;;;;0.07;99.59;99735.41;5135289;27;19965;-69
2023/03/27 07:03:01;;;;;;;;;;;;;;;0.16;98.70;99744.31;5135356;27;19918;-71
2023/03/27 07:05:29;;;;;;;;;;;;;;;0.19;97.89;99744.91;5135138;27;19911;-71
2023/03/27 07:07:54;;;;;;;;;;;;;;;0.25;98.72;99746.19;5125063;27;19912;-74
2023/03/27 07:10:20;;;;;;;;;;;;;;;0.28;97.80;99749.41;5127713;27;19919;-74
2023/03/27 07:12:49;;;;;;;;;;;;;;;0.24;98.03;99747.16;5123266;27;19919;-70
2023/03/27 07:15:15;;;;;;;;;;;;;;;0.23;98.48;99753.34;5120939;27;19911;-69
2023/03/27 07:17:42;;;;;;;;;;;;;;;0.24;97.92;99753.22;5121603;27;19919;-72
2023/03/27 07:20:09;;;;;;;;;;;;;;;0.17;97.75;99762.50;5125735;27;19927;-71
2023/03/27 07:22:34;;;;;;;;;;;;;;;-0.01;97.95;99753.47;5109920;28;19919;-70
2023/03/27 07:25:00;;;;;;;;;;;;;;;-0.06;98.60;99750.38;5127030;27;20005;-70
2023/03/27 07:27:26;;;;;;;;;;;;;;;-0.11;98.25;99763.00;5123081;27;20362;-72
2023/03/27 07:29:51;;;;;;;;;;;;;;;-0.02;98.77;99759.66;5122621;27;19940;-70
2023/03/27 07:32:17;;;;;;;;;;;;;;;-0.03;99.28;99750.16;5121359;27;19937;-70
2023/03/27 07:34:43;;;;;;;;;;;;;;;-0.05;99.08;99757.28;5102224;28;19923;-68
2023/03/27 07:37:08;;;;;;;;;;;;;;;0.12;98.80;99762.06;5112895;28;19916;-71
2023/03/27 07:39:39;;;;;;;;;;;;;;;0.18;97.54;99758.94;5114132;27;21324;-71
2023/03/27 07:42:04;;;;;;;;;;;;;;;0.26;98.80;99764.41;5117166;27;20264;-70
2023/03/27 07:44:29;;;;;;;;;;;;;;;0.34;98.57;99765.59;5120995;27;19923;-71
2023/03/27 07:46:55;;;;;;;;;;;;;;;0.33;98.60;99777.03;5122609;27;19965;-72
2023/03/27 07:49:20;;;;;;;;;;;;;;;0.39;98.77;99771.31;5114661;27;19915;-69
2023/03/27 07:51:45;;;;;;;;;;;;;;;0.43;98.35;99778.78;5113588;27;19973;-71
2023/03/27 07:54:14;;;;;;;;;;;;;;;0.33;97.96;99775.25;5113630;28;19955;-75
2023/03/27 07:56:39;;;;;;;;;;;;;;;0.42;97.98;99776.28;5113680;28;19911;-73
2023/03/27 07:59:05;;;;;;;;;;;;;;;0.47;97.15;99768.91;5113584;28;19939;-73
2023/03/27 08:01:31;;;;;;;;;;;;;;;0.43;96.28;99778.78;5113412;28;19998;-71
2023/03/27 08:03:58;;;;;;;;;;;;;;;0.37;96.42;99774.03;5113029;28;19912;-69
2023/03/27 08:06:23;;;;;;;;;;;;;;;0.38;96.56;99786.19;5113185;28;19912;-70
2023/03/27 08:08:49;;;;;;;;;;;;;;;0.40;97.14;99793.91;5112715;28;19916;-68
2023/03/27 08:11:15;;;;;;;;;;;;;;;0.39;96.07;99782.59;5112004;28;19923;-70
2023/03/27 08:13:40;;;;;;;;;;;;;;;0.49;96.81;99782.69;5111345;28;19957;-65
2023/03/27 08:16:10;;;;;;;;;;;;;;;0.53;96.44;99794.59;5093034;28;19911;-66
2023/03/27 08:18:36;;;;;;;;;;;;;;;0.60;96.56;99787.94;5112052;28;19919;-72
2023/03/27 08:21:03;;;;;;;;;;;;;;;0.44;96.29;99795.34;5112484;28;19919;-69
2023/03/27 08:23:29;;;;;;;;;;;;;;;0.50;97.81;99794.84;5112669;28;20007;-69
2023/03/27 08:25:59;;;;;;;;;;;;;;;0.69;96.53;99795.06;5099222;27;19911;-68
2023/03/27 08:28:26;;;;;;;;;;;;;;;0.71;96.07;99781.81;5115884;27;20343;-69
2023/03/27 08:30:51;;;;;;;;;;;;;;;0.68;96.09;99796.00;5112908;28;20282;-68
2023/03/27 08:33:18;;;;;;;;;;;;;;;0.60;95.43;99790.56;5112892;28;19911;-71
2023/03/27 08:35:46;;;;;;;;;;;;;;;0.52;95.48;99796.38;5112648;28;19963;-68
2023/03/27 08:38:12;;;;;;;;;;;;;;;0.47;95.81;99792.47;5112999;28;19973;-70
2023/03/27 08:40:37;;;;;;;;;;;;;;;0.41;95.55;99803.44;5112842;28;19916;-75
2023/03/27 08:43:05;;;;;;;;;;;;;;;0.41;95.28;99808.69;5112976;28;19911;-72
2023/03/27 08:45:35;;;;;;;;;;;;;;;0.39;95.17;99797.50;5112590;28;19915;-71
2023/03/27 08:48:06;;;;;;;;;;;;;;;0.33;95.99;99792.75;5112763;28;20026;-69
2023/03/27 08:50:37;;;;;;;;;;;;;;;0.46;96.06;99803.91;5112492;28;20424;-70
2023/03/27 08:53:06;;;;;;;;;;;;;;;0.34;95.81;99804.88;5112868;28;19919;-70
2023/03/27 08:55:40;;;;;;;;;;;;;;;0.34;96.19;99791.78;5112805;28;19912;-69
2023/03/27 08:58:14;;;;;;;;;;;;;;;0.50;96.63;99806.16;5112674;28;19915;-69
2023/03/27 09:00:40;;;;;;;;;;;;;;;0.40;95.85;99807.00;5094453;28;19911;-70
2023/03/27 09:03:12;;;;;;;;;;;;;;;0.32;96.26;99804.19;5112885;28;19916;-69
2023/03/27 09:05:47;;;;;;;;;;;;;;;0.33;96.68;99803.22;5112827;28;20480;-69
2023/03/27 09:08:20;;;;;;;;;;;;;;;0.51;96.00;99804.38;5112884;28;20360;-69
2023/03/27 09:10:45;;;;;;;;;;;;;;;0.59;96.02;99809.84;5112799;28;20002;-70
2023/03/27 09:13:15;;;;;;;;;;;;;;;0.66;95.26;99804.94;5112386;28;20064;-70
2023/03/27 09:15:40;;;;;;;;;;;;;;;0.80;95.27;99800.25;5112619;28;19911;-71
2023/03/27 09:18:11;;;;;;;;;;;;;;;0.83;95.21;99813.09;5112569;28;19919;-70
2023/03/27 09:20:41;;;;;;;;;;;;;;;0.85;95.23;99805.13;5112997;28;19912;-68
2023/03/27 09:23:15;;;;;;;;;;;;;;;1.10;94.42;99817.06;5114889;28;19915;-70
2023/03/27 09:25:46;;;;;;;;;;;;;;;0.97;92.85;99814.63;5116946;28;20030;-71
2023/03/27 09:28:16;;;;;;;;;;;;;;;0.86;93.17;99812.84;5116800;28;19920;-70
2023/03/27 09:30:41;;;;;;;;;;;;;;;0.91;93.70;99820.38;5116581;28;20097;-69
2023/03/27 09:33:09;;;;;;;;;;;;;;;1.06;92.91;99815.66;5116501;28;20327;-70
2023/03/27 09:35:37;;;;;;;;;;;;;;;1.26;91.79;99807.00;5116231;28;20362;-70
2023/03/27 09:38:22;;;;;;;;;;;;;;;1.22;90.24;99831.81;5116208;28;20351;-69
2023/03/27 09:41:08;;;;;;;;;;;;;;;0.88;91.11;99821.44;5115914;28;20027;-69
2023/03/27 09:43:55;;;;;;;;;;;;;;;0.76;92.11;99830.28;5102202;28;19912;-69
2023/03/27 09:46:22;;;;;;;;;;;;;;;0.80;92.02;99820.38;5116105;28;19965;-70
2023/03/27 09:48:53;;;;;;;;;;;;;;;0.96;92.32;99822.63;5116200;28;19911;-70
2023/03/27 09:51:38;;;;;;;;;;;;;;;1.01;92.29;99823.91;5115843;28;19918;-69
2023/03/27 09:54:05;;;;;;;;;;;;;;;1.03;92.00;99835.09;5096968;28;20385;-70
2023/03/27 09:56:34;;;;;;;;;;;;;;;1.00;91.71;99843.22;5115995;28;19912;-70
2023/03/27 09:58:59;;;;;;;;;;;;;;;0.84;92.30;99846.22;5115791;28;19911;-69
2023/03/27 10:01:33;;;;;;;;;;;;;;;0.82;91.73;99845.50;5115992;28;19964;-69
2023/03/27 10:03:59;;;;;;;;;;;;;;;0.74;92.15;99858.41;5116681;28;19971;-70
2023/03/27 10:06:28;;;;;;;;;;;;;;;0.81;92.21;99849.09;5116176;28;20002;-69
2023/03/27 10:08:54;;;;;;;;;;;;;;;0.77;91.86;99852.91;5116071;28;20374;-69
2023/03/27 10:11:22;;;;;;;;;;;;;;;0.76;92.08;99858.28;5097597;28;19911;-70
2023/03/27 10:13:49;;;;;;;;;;;;;;;0.69;91.78;99849.25;5116229;28;20394;-69
2023/03/27 10:16:16;;;;;;;;;;;;;;;0.73;91.46;99848.88;5115939;28;20343;-70
2023/03/27 10:18:46;;;;;;;;;;;;;;;0.78;91.43;99856.38;5115684;28;19915;-69
2023/03/27 10:21:30;;;;;;;;;;;;;;;0.83;92.26;99855.03;5115522;28;19916;-68
2023/03/27 10:23:59;;;;;;;;;;;;;;;1.03;91.66;99853.44;5115140;28;19923;-70
2023/03/27 10:26:25;;;;;;;;;;;;;;;1.14;91.42;99852.56;5115135;28;19918;-70
2023/03/27 10:28:51;;;;;;;;;;;;;;;1.23;91.10;99849.22;5115526;28;19988;-70
2023/03/27 10:31:29;;;;;;;;;;;;;;;1.27;90.31;99848.00;5115420;28;19912;-71
2023/03/27 10:33:56;;;;;;;;;;;;;;;1.12;90.46;99850.06;5114450;28;19996;-71
2023/03/27 10:36:21;;;;;;;;;;;;;;;1.08;90.03;99856.53;5115238;28;19923;-70
2023/03/27 10:38:55;;;;;;;;;;;;;;;1.05;90.82;99854.16;5115497;28;19919;-71
2023/03/27 10:41:21;;;;;;;;;;;;;;;1.23;91.12;99857.91;5115201;28;20317;-70
2023/03/27 10:43:48;;;;;;;;;;;;;;;1.22;89.51;99855.44;5096920;28;19911;-69
2023/03/27 10:46:18;;;;;;;;;;;;;;;1.12;90.08;99849.25;5115108;28;19912;-71
2023/03/27 10:48:49;;;;;;;;;;;;;;;1.07;91.16;99856.66;5114745;28;20369;-69
2023/03/27 10:51:23;;;;;;;;;;;;;;;1.07;90.66;99856.66;5114596;28;19998;-69
2023/03/27 10:53:52;;;;;;;;;;;;;;;0.84;91.20;99868.97;5114991;28;19912;-69
2023/03/27 10:56:36;;;;;;;;;;;;;;;0.92;90.66;99872.69;5114778;28;19911;-69
2023/03/27 10:59:07;;;;;;;;;;;;;;;1.11;89.76;99884.28;5114857;28;20224;-70
2023/03/27 11:01:36;;;;;;;;;;;;;;;1.23;89.15;99878.91;5114520;28;19930;-72
2023/03/27 11:04:20;;;;;;;;;;;;;;;1.31;88.19;99880.06;5114651;28;19916;-71
2023/03/27 11:06:46;;;;;;;;;;;;;;;1.20;88.43;99894.06;5114709;28;19947;-70
2023/03/27 11:09:25;;;;;;;;;;;;;;;1.09;89.43;99887.03;5114579;28;19922;-71
2023/03/27 11:11:52;;;;;;;;;;;;;;;1.14;90.01;99884.03;5115409;28;20373;-69
2023/03/27 11:14:21;;;;;;;;;;;;;;;1.16;89.87;99892.66;5114639;28;19919;-70
2023/03/27 11:16:49;;;;;;;;;;;;;;;1.09;90.33;99901.94;5114509;28;19919;-71
2023/03/27 11:19:14;;;;;;;;;;;;;;;1.14;90.99;99891.91;5114504;28;20010;-70
2023/03/27 11:21:46;;;;;;;;;;;;;;;1.05;91.29;99896.09;5113937;28;19966;-68
2023/03/27 11:24:19;;;;;;;;;;;;;;;1.13;91.82;99892.84;5114132;28;19915;-70
2023/03/27 11:26:48;;;;;;;;;;;;;;;1.10;90.91;99893.94;5114289;28;20286;-69
2023/03/27 11:29:19;;;;;;;;;;;;;;;0.90;91.33;99897.34;5114014;28;20498;-69
2023/03/27 11:31:48;;;;;;;;;;;;;;;0.75;91.56;99894.13;5114106;28;19970;-70
2023/03/27 11:34:36;;;;;;;;;;;;;;;0.65;91.94;99903.69;5113956;28;20274;-70
2023/03/27 11:37:15;;;;;;;;;;;;;;;0.60;92.71;99909.28;5114138;28;19920;-69
2023/03/27 11:39:43;;;;;;;;;;;;;;;0.74;92.74;99900.34;5096175;28;20384;-69
2023/03/27 11:42:23;;;;;;;;;;;;;;;0.85;92.34;99912.59;5114317;28;19958;-70
2023/03/27 11:44:48;;;;;;;;;;;;;;;0.73;93.23;99893.44;5113886;28;19912;-69
2023/03/27 11:47:32;;;;;;;;;;;;;;;0.81;92.85;99904.13;5113776;28;19912;-71
2023/03/27 11:49:57;;;;;;;;;;;;;;;0.93;92.74;99897.94;5114049;28;19911;-71
2023/03/27 11:52:45;;;;;;;;;;;;;;;0.95;92.34;99896.97;5113440;28;20428;-69
2023/03/27 11:55:19;;;;;;;;;;;;;;;0.92;93.43;99885.78;5112788;28;19919;-71
2023/03/27 11:57:57;;;;;;;;;;;;;;;0.99;92.63;99890.53;5095225;28;20289;-69
2023/03/27 12:00:41;;;;;;;;;;;;;;;0.80;92.80;99886.75;5113936;28;20298;-70
2023/03/27 12:03:06;;;;;;;;;;;;;;;0.76;92.66;99890.56;5113974;28;19935;-70
2023/03/27 12:05:54;;;;;;;;;;;;;;;0.79;92.77;99902.59;5113999;28;20367;-71
2023/03/27 12:08:25;;;;;;;;;;;;;;;0.84;93.25;99903.06;5113551;28;19911;-71
2023/03/27 12:10:52;;;;;;;;;;;;;;;0.94;92.76;99898.75;5113539;28;19934;-70
2023/03/27 12:13:20;;;;;;;;;;;;;;;0.72;93.20;99898.78;5113430;28;20006;-70
2023/03/27 12:15:45;;;;;;;;;;;;;;;0.61;93.82;99910.13;5113187;28;19934;-71
2023/03/27 12:18:29;;;;;;;;;;;;;;;0.65;93.99;99914.16;5094966;28;20359;-71
2023/03/27 12:21:04;;;;;;;;;;;;;;;0.59;93.50;99920.72;5113211;28;19925;-69
2023/03/27 12:23:38;;;;;;;;;;;;;;;0.62;94.29;99914.41;5113159;28;19912;-72
2023/03/27 12:26:22;;;;;;;;;;;;;;;0.73;93.63;99918.81;5113155;28;19916;-68
2023/03/27 12:29:04;;;;;;;;;;;;;;;0.82;93.42;99926.75;5113002;28;19911;-71
2023/03/27 12:31:38;;;;;;;;;;;;;;;0.87;92.49;99935.13;5112976;28;19984;-68
2023/03/27 12:34:13;;;;;;;;;;;;;;;0.74;93.67;99918.69;5112658;28;19962;-71
2023/03/27 12:36:40;;;;;;;;;;;;;;;0.69;93.01;99931.31;5112896;28;19916;-71
2023/03/27 12:39:31;;;;;;;;;;;;;;;0.64;92.91;99930.00;5112848;28;19923;-68
2023/03/27 12:41:57;;;;;;;;;;;;;;;0.55;93.49;99939.41;5108676;28;20006;-70
2023/03/27 12:44:42;;;;;;;;;;;;;;;0.56;94.23;99941.06;5112648;28;19958;-71
2023/03/27 12:47:22;;;;;;;;;;;;;;;0.70;94.17;99942.63;5111120;28;20307;-70
2023/03/27 12:49:58;;;;;;;;;;;;;;;0.83;93.79;99953.81;5112599;28;19912;-71
2023/03/27 12:52:25;;;;;;;;;;;;;;;0.84;92.75;99950.22;5120489;28;20437;-70
2023/03/27 12:55:05;;;;;;;;;;;;;;;0.67;92.46;99953.34;5121086;28;19921;-70